createdAt,value
2022-12-08T00:02:45.618Z,-1.45
2022-12-08T00:06:07.564Z,-1.45
2022-12-08T00:09:23.035Z,-1.73
2022-12-08T00:12:25.185Z,-1.62
2022-12-08T00:15:27.384Z,-1.51
2022-12-08T00:18:29.518Z,-1.56
2022-12-08T00:21:31.758Z,-1.59
2022-12-08T00:24:36.172Z,-1.70
2022-12-08T00:27:38.329Z,-1.84
2022-12-08T00:30:41.677Z,-1.91
2022-12-08T00:33:43.842Z,-1.68
2022-12-08T00:36:46.416Z,-1.53
2022-12-08T00:39:48.586Z,-1.36
2022-12-08T00:42:50.738Z,-1.20
2022-12-08T00:45:52.897Z,-1.50
2022-12-08T00:48:55.054Z,-1.52
2022-12-08T00:51:57.250Z,-1.73
2022-12-08T00:54:59.406Z,-1.70
2022-12-08T00:58:01.739Z,-1.70
2022-12-08T01:01:12.943Z,-1.59
2022-12-08T01:04:16.906Z,-1.57
2022-12-08T01:07:19.076Z,-1.47
2022-12-08T01:10:21.286Z,-1.34
2022-12-08T01:13:23.425Z,-1.62
2022-12-08T01:16:28.576Z,-1.45
2022-12-08T01:19:31.018Z,-1.68
2022-12-08T01:22:35.168Z,-1.49
2022-12-08T01:25:37.361Z,-1.47
2022-12-08T01:28:39.885Z,-1.44
2022-12-08T01:31:42.252Z,-1.56
2022-12-08T01:34:44.447Z,-1.64
2022-12-08T01:37:46.687Z,-1.82
2022-12-08T01:40:49.298Z,-2.01
2022-12-08T01:43:56.333Z,-1.93
2022-12-08T01:46:58.566Z,-1.91
2022-12-08T01:50:00.944Z,-2.03
2022-12-08T01:53:10.742Z,-1.81
2022-12-08T01:56:16.729Z,-1.70
2022-12-08T01:59:19.445Z,-1.42
2022-12-08T02:02:21.671Z,-1.40
2022-12-08T02:05:26.976Z,-1.75
2022-12-08T02:08:29.527Z,-1.63
2022-12-08T02:11:31.855Z,-1.58
2022-12-08T02:14:34.614Z,-1.79
2022-12-08T02:18:07.602Z,-1.85
2022-12-08T02:21:21.865Z,-1.84
2022-12-08T02:24:41.345Z,-1.77
2022-12-08T02:28:01.543Z,-1.64
2022-12-08T02:31:18.987Z,-1.65
2022-12-08T02:34:30.591Z,-1.52
2022-12-08T02:37:37.390Z,-1.89
2022-12-08T02:41:03.788Z,-2.02
2022-12-08T02:44:16.255Z,-1.89
2022-12-08T02:47:19.684Z,-1.74
2022-12-08T02:50:21.848Z,-1.79
2022-12-08T02:53:23.986Z,-1.79
2022-12-08T02:56:52.932Z,-1.82
2022-12-08T03:00:10.381Z,-1.62
2022-12-08T03:03:24.419Z,-1.55
2022-12-08T03:06:37.153Z,-1.51
2022-12-08T03:09:46.833Z,-1.64
2022-12-08T03:12:54.490Z,-1.70
2022-12-08T03:15:57.013Z,-1.64
2022-12-08T03:19:09.654Z,-1.60
2022-12-08T03:22:12.504Z,-1.42
2022-12-08T03:25:16.509Z,-1.21
2022-12-08T03:28:18.710Z,-1.08
2022-12-08T03:31:21.939Z,-1.14
2022-12-08T03:34:26.607Z,-1.01
2022-12-08T03:37:29.001Z,-0.94
2022-12-08T03:40:31.403Z,-0.86
2022-12-08T03:43:33.592Z,-0.81
2022-12-08T03:46:35.794Z,-0.87
2022-12-08T03:49:38.026Z,-0.71
2022-12-08T03:52:40.212Z,-0.70
2022-12-08T03:55:42.503Z,-0.60
2022-12-08T03:58:44.814Z,-0.62
2022-12-08T04:01:47.054Z,-0.72
2022-12-08T04:04:49.249Z,-0.83
2022-12-08T04:07:51.488Z,-0.95
2022-12-08T04:10:53.794Z,-0.91
2022-12-08T04:13:56.038Z,-0.87
2022-12-08T04:16:58.204Z,-0.72
2022-12-08T04:20:00.344Z,-0.69
2022-12-08T04:23:02.493Z,-0.62
2022-12-08T04:26:04.924Z,-0.80
2022-12-08T04:29:07.245Z,-0.89
2022-12-08T04:32:09.457Z,-0.66
2022-12-08T04:35:11.582Z,-0.55
2022-12-08T04:38:14.487Z,-0.50
2022-12-08T04:41:16.656Z,-0.41
2022-12-08T04:44:18.876Z,-0.76
2022-12-08T04:47:22.250Z,-0.87
2022-12-08T04:50:24.396Z,-0.77
2022-12-08T04:53:27.188Z,-0.58
2022-12-08T04:56:29.403Z,-0.47
2022-12-08T04:59:31.707Z,-0.51
2022-12-08T05:02:33.966Z,-0.76
2022-12-08T05:05:36.312Z,-0.54
2022-12-08T05:08:38.499Z,-0.43
2022-12-08T05:11:48.410Z,-0.23
2022-12-08T05:14:51.142Z,-0.22
2022-12-08T05:17:53.421Z,-0.34
2022-12-08T05:20:55.585Z,-0.57
2022-12-08T05:23:57.733Z,-0.38
2022-12-08T05:26:59.854Z,-0.19
2022-12-08T05:30:02.253Z,-0.17
2022-12-08T05:33:04.770Z,-0.26
2022-12-08T05:36:07.550Z,-0.32
2022-12-08T05:39:13.975Z,-0.36
2022-12-08T05:42:20.491Z,-0.35
2022-12-08T05:45:25.481Z,-0.28
2022-12-08T05:48:27.889Z,-0.25
2022-12-08T05:51:30.348Z,-0.16
2022-12-08T05:54:32.558Z,-0.25
2022-12-08T05:57:34.695Z,-0.16
2022-12-08T06:00:36.926Z,-0.23
2022-12-08T06:03:39.149Z,-0.32
2022-12-08T06:06:41.334Z,-0.44
2022-12-08T06:09:44.203Z,-0.22
2022-12-08T06:12:46.390Z,-0.10
2022-12-08T06:15:48.548Z,-0.20
2022-12-08T06:18:50.753Z,-0.04
2022-12-08T06:21:52.935Z,-0.05
2022-12-08T06:24:55.301Z,-0.06
2022-12-08T06:27:57.887Z,0.14
2022-12-08T06:31:00.592Z,0.18
2022-12-08T06:34:02.879Z,0.06
2022-12-08T06:37:05.026Z,-0.07
2022-12-08T06:40:07.929Z,-0.04
2022-12-08T06:43:10.225Z,-0.06
2022-12-08T06:46:15.935Z,-0.09
2022-12-08T06:49:18.188Z,-0.09
2022-12-08T06:52:20.325Z,-0.06
2022-12-08T06:55:50.775Z,0.05
2022-12-08T06:58:49.060Z,-0.08
2022-12-08T07:01:54.520Z,0.07
2022-12-08T07:04:56.733Z,0.11
2022-12-08T07:07:58.956Z,0.26
2022-12-08T07:11:07.679Z,0.36
2022-12-08T07:14:10.892Z,0.15
2022-12-08T07:17:13.726Z,0.23
2022-12-08T07:20:16.614Z,0.52
2022-12-08T07:23:18.778Z,0.33
2022-12-08T07:26:20.990Z,0.25
2022-12-08T07:29:26.208Z,0.47
2022-12-08T07:32:28.684Z,0.61
2022-12-08T07:35:30.843Z,0.61
2022-12-08T07:38:33.150Z,0.56
2022-12-08T07:41:35.486Z,0.64
2022-12-08T07:44:37.944Z,0.82
2022-12-08T07:47:40.113Z,0.84
2022-12-08T07:50:42.576Z,0.79
2022-12-08T07:53:53.172Z,0.84
2022-12-08T07:56:57.960Z,0.88
2022-12-08T08:00:00.102Z,0.88
2022-12-08T08:03:02.869Z,0.98
2022-12-08T08:06:05.764Z,1.10
2022-12-08T08:09:08.870Z,1.19
2022-12-08T08:12:30.092Z,1.24
2022-12-08T08:15:33.319Z,1.24
2022-12-08T08:18:36.149Z,1.34
2022-12-08T08:21:46.360Z,1.42
2022-12-08T08:24:48.737Z,1.55
2022-12-08T08:27:51.186Z,1.79
2022-12-08T08:30:53.749Z,2.18
2022-12-08T08:33:56.934Z,2.15
2022-12-08T08:36:59.198Z,2.00
2022-12-08T08:40:01.681Z,2.26
2022-12-08T08:43:05.293Z,2.32
2022-12-08T08:46:09.049Z,2.68
2022-12-08T08:49:11.316Z,2.94
2022-12-08T08:52:13.460Z,3.02
2022-12-08T08:55:15.834Z,3.12
2022-12-08T08:58:18.246Z,3.17
2022-12-08T09:01:23.232Z,3.20
2022-12-08T09:04:25.755Z,3.37
2022-12-08T09:07:27.984Z,3.51
2022-12-08T09:10:30.174Z,3.61
2022-12-08T09:13:32.346Z,3.71
2022-12-08T09:16:40.422Z,3.68
2022-12-08T09:19:44.294Z,3.79
2022-12-08T09:22:46.502Z,3.70
2022-12-08T09:25:48.659Z,3.60
2022-12-08T09:28:52.035Z,3.60
2022-12-08T09:31:55.167Z,3.56
2022-12-08T09:34:57.516Z,3.50
2022-12-08T09:37:59.682Z,3.64
2022-12-08T09:41:04.007Z,3.47
2022-12-08T09:44:38.658Z,3.54
2022-12-08T09:47:47.764Z,3.55
2022-12-08T09:50:53.718Z,3.48
2022-12-08T09:53:59.377Z,3.36
2022-12-08T09:57:07.676Z,3.30
2022-12-08T10:00:14.459Z,3.30
2022-12-08T10:03:17.192Z,3.04
2022-12-08T10:06:29.314Z,3.07
2022-12-08T10:09:37.030Z,2.99
2022-12-08T10:12:45.284Z,3.05
2022-12-08T10:15:59.430Z,3.04
2022-12-08T10:19:28.797Z,2.93
2022-12-08T10:22:37.699Z,2.93
2022-12-08T10:25:46.629Z,2.88
2022-12-08T10:28:49.326Z,2.93
2022-12-08T10:31:51.559Z,2.95
2022-12-08T10:35:14.792Z,3.05
2022-12-08T10:38:18.579Z,3.14
2022-12-08T10:41:20.924Z,3.18
2022-12-08T10:44:23.070Z,3.31
2022-12-08T10:47:27.167Z,3.32
2022-12-08T10:50:43.944Z,3.49
2022-12-08T10:53:46.773Z,3.65
2022-12-08T10:56:55.037Z,3.66
2022-12-08T10:59:57.521Z,3.52
2022-12-08T11:03:04.776Z,3.58
2022-12-08T11:06:20.072Z,3.77
2022-12-08T11:09:24.874Z,3.90
2022-12-08T11:12:28.577Z,3.76
2022-12-08T11:15:37.815Z,3.78
2022-12-08T11:18:47.067Z,3.87
2022-12-08T11:21:49.275Z,3.79
2022-12-08T11:25:03.647Z,3.88
2022-12-08T11:28:10.088Z,3.77
2022-12-08T11:31:35.638Z,3.80
2022-12-08T11:34:44.624Z,3.63
2022-12-08T11:37:46.864Z,3.63
2022-12-08T11:41:04.740Z,3.35
2022-12-08T11:44:39.041Z,3.51
2022-12-08T11:47:55.444Z,3.35
2022-12-08T11:51:05.215Z,3.21
2022-12-08T11:54:13.473Z,3.09
2022-12-08T11:57:20.871Z,3.33
2022-12-08T12:00:23.198Z,3.21
2022-12-08T12:03:31.495Z,3.17
2022-12-08T12:06:58.062Z,2.95
2022-12-08T12:10:28.330Z,3.00
2022-12-08T12:13:53.332Z,3.04
2022-12-08T12:17:06.288Z,2.89
2022-12-08T12:20:29.955Z,2.89
2022-12-08T12:23:36.605Z,2.74
2022-12-08T12:26:53.436Z,2.84
2022-12-08T12:30:00.702Z,2.86
2022-12-08T12:33:08.661Z,2.85
2022-12-08T12:36:11.207Z,2.78
2022-12-08T12:39:14.377Z,2.80
2022-12-08T12:42:45.355Z,2.84
2022-12-08T12:45:47.590Z,2.91
2022-12-08T12:48:53.181Z,2.84
2022-12-08T12:51:55.721Z,2.90
2022-12-08T12:54:57.784Z,2.90
2022-12-08T12:58:13.312Z,2.89
2022-12-08T13:01:21.569Z,2.95
2022-12-08T13:04:33.661Z,2.99
2022-12-08T13:07:59.358Z,2.86
2022-12-08T13:11:07.083Z,2.98
2022-12-08T13:14:32.259Z,2.89
2022-12-08T13:17:38.108Z,2.78
2022-12-08T13:20:48.451Z,2.71
2022-12-08T13:24:12.777Z,2.87
2022-12-08T13:27:33.166Z,2.70
2022-12-08T13:30:43.622Z,2.51
2022-12-08T13:33:45.921Z,2.46
2022-12-08T13:36:56.976Z,2.44
2022-12-08T13:40:04.035Z,2.10
2022-12-08T13:43:17.285Z,2.09
2022-12-08T13:57:11.477Z,1.92
2022-12-08T14:00:19.636Z,2.05
2022-12-08T14:03:21.882Z,2.01
2022-12-08T14:06:38.851Z,2.07
2022-12-08T14:09:41.711Z,1.89
2022-12-08T14:12:46.565Z,2.06
2022-12-08T14:15:48.800Z,1.91
2022-12-08T14:18:51.247Z,1.90
2022-12-08T14:22:08.780Z,1.84
2022-12-08T14:25:15.283Z,1.87
2022-12-08T14:28:17.463Z,1.96
2022-12-08T14:31:19.618Z,1.89
2022-12-08T14:34:21.863Z,1.87
2022-12-08T14:37:25.863Z,1.80
2022-12-08T14:40:33.689Z,1.58
2022-12-08T14:43:36.227Z,1.83
2022-12-08T14:46:38.525Z,1.81
2022-12-08T14:49:40.809Z,1.84
2022-12-08T14:52:44.626Z,1.87
2022-12-08T14:55:48.315Z,1.81
2022-12-08T14:59:03.126Z,1.76
2022-12-08T15:02:24.257Z,1.83
2022-12-08T15:05:30.623Z,1.91
2022-12-08T15:08:33.859Z,1.84
2022-12-08T15:11:36.070Z,1.94
2022-12-08T15:14:42.147Z,1.90
2022-12-08T15:17:51.765Z,1.83
2022-12-08T15:20:55.738Z,1.92
2022-12-08T15:23:57.943Z,1.91
2022-12-08T15:27:00.172Z,1.83
2022-12-08T15:30:02.443Z,1.97
2022-12-08T15:33:04.718Z,1.94
2022-12-08T15:36:07.092Z,1.95
2022-12-08T15:39:31.590Z,1.83
2022-12-08T15:42:33.767Z,1.86
2022-12-08T15:45:35.999Z,1.97
2022-12-08T15:48:38.329Z,2.03
2022-12-08T15:51:40.470Z,2.04
2022-12-08T15:54:42.744Z,1.92
2022-12-08T16:01:08.715Z,2.04
2022-12-08T16:04:59.667Z,2.08
2022-12-08T16:07:38.248Z,2.05
2022-12-08T16:11:24.179Z,2.14
2022-12-08T16:14:47.101Z,1.95
2022-12-08T16:17:26.899Z,1.98
2022-12-08T16:21:05.441Z,2.05
2022-12-08T16:23:51.408Z,2.03
2022-12-08T16:30:17.746Z,1.93
2022-12-08T16:33:21.112Z,1.95
2022-12-08T16:36:23.468Z,1.92
2022-12-08T16:39:25.800Z,1.98
2022-12-08T16:42:39.726Z,2.13
2022-12-08T16:45:45.037Z,2.26
2022-12-08T16:48:47.430Z,2.34
2022-12-08T16:51:49.629Z,2.43
2022-12-08T16:54:51.974Z,2.39
2022-12-08T16:57:54.235Z,2.41
2022-12-08T17:00:56.495Z,2.37
2022-12-08T17:07:21.242Z,1.67
2022-12-08T17:10:26.362Z,1.79
2022-12-08T17:13:28.551Z,1.63
2022-12-08T17:16:30.940Z,1.47
2022-12-08T17:19:33.876Z,1.53
2022-12-08T17:22:36.147Z,1.50
2022-12-08T17:25:38.418Z,1.45
2022-12-08T17:29:10.781Z,1.58
2022-12-08T17:32:03.605Z,1.62
2022-12-08T17:35:06.829Z,1.73
2022-12-08T17:38:09.402Z,1.53
2022-12-08T17:41:12.948Z,1.58
2022-12-08T17:44:19.911Z,1.61
2022-12-08T17:47:22.337Z,1.84
2022-12-08T17:50:24.495Z,1.71
2022-12-08T17:53:26.666Z,1.44
2022-12-08T17:56:28.835Z,1.64
2022-12-08T17:59:32.453Z,1.55
2022-12-08T18:02:37.837Z,1.73
2022-12-08T18:05:40.220Z,1.92
2022-12-08T18:08:42.388Z,1.92
2022-12-08T18:11:46.180Z,1.85
2022-12-08T18:14:48.854Z,1.98
2022-12-08T18:17:51.337Z,2.02
2022-12-08T18:20:53.654Z,2.07
2022-12-08T18:23:55.958Z,1.95
2022-12-08T18:26:58.347Z,1.76
2022-12-08T18:30:02.067Z,1.76
2022-12-08T18:33:05.387Z,1.91
2022-12-08T18:36:10.055Z,1.82
2022-12-08T18:39:32.689Z,1.91
2022-12-08T18:42:35.410Z,1.93
2022-12-08T18:45:39.732Z,1.92
2022-12-08T18:48:47.363Z,2.09
2022-12-08T18:51:49.751Z,1.97
2022-12-08T18:55:06.328Z,2.13
2022-12-08T18:58:10.985Z,2.06
2022-12-08T19:01:14.386Z,2.12
2022-12-08T19:04:37.229Z,2.06
2022-12-08T19:07:39.418Z,2.20
2022-12-08T19:10:42.045Z,2.21
2022-12-08T19:13:44.255Z,2.42
2022-12-08T19:16:46.629Z,2.32
2022-12-08T19:19:48.975Z,2.37
2022-12-08T19:22:51.199Z,2.39
2022-12-08T19:25:54.243Z,2.20
2022-12-08T19:28:57.592Z,2.30
2022-12-08T19:32:00.450Z,2.43
2022-12-08T19:35:07.206Z,2.44
2022-12-08T19:38:09.437Z,2.37
2022-12-08T19:41:30.846Z,2.39
2022-12-08T19:44:51.918Z,2.39
2022-12-08T19:47:54.340Z,2.40
2022-12-08T19:50:57.020Z,2.42
2022-12-08T19:53:59.478Z,2.37
2022-12-08T19:57:02.081Z,2.21
2022-12-08T20:00:05.965Z,2.17
2022-12-08T20:03:09.081Z,2.17
2022-12-08T20:06:14.876Z,2.15
2022-12-08T20:09:17.256Z,2.22
2022-12-08T20:12:19.689Z,2.18
2022-12-08T20:15:22.161Z,1.92
2022-12-08T20:18:25.864Z,2.01
2022-12-08T20:21:28.402Z,2.01
2022-12-08T20:24:32.426Z,2.06
2022-12-08T20:27:35.575Z,1.98
2022-12-08T20:30:39.422Z,1.93
2022-12-08T20:33:42.392Z,1.98
2022-12-08T20:36:46.073Z,2.05
2022-12-08T20:39:48.789Z,2.09
2022-12-08T20:42:51.047Z,1.93
2022-12-08T20:45:54.793Z,1.99
2022-12-08T20:49:01.205Z,1.89
2022-12-08T20:52:03.909Z,1.80
2022-12-08T20:55:07.531Z,1.90
2022-12-08T20:58:10.028Z,1.77
2022-12-08T21:01:14.358Z,1.91
2022-12-08T21:04:16.841Z,2.01
2022-12-08T21:07:19.214Z,1.99
2022-12-08T21:10:21.523Z,2.07
2022-12-08T21:13:24.207Z,2.00
2022-12-08T21:16:26.667Z,2.01
2022-12-08T21:19:29.527Z,2.14
2022-12-08T21:22:31.832Z,1.96
2022-12-08T21:25:34.146Z,2.02
2022-12-08T21:28:36.460Z,2.05
2022-12-08T21:31:39.217Z,2.15
2022-12-08T21:34:43.941Z,2.03
2022-12-08T21:37:46.186Z,2.12
2022-12-08T21:40:48.542Z,2.14
2022-12-08T21:43:50.985Z,2.26
2022-12-08T21:46:53.420Z,2.19
2022-12-08T21:49:55.736Z,2.04
2022-12-08T21:52:58.139Z,2.06
2022-12-08T21:56:00.532Z,2.24
2022-12-08T21:59:03.147Z,2.20
2022-12-08T22:02:05.573Z,2.29
2022-12-08T22:05:08.534Z,2.24
2022-12-08T22:08:10.776Z,2.21
2022-12-08T22:11:13.212Z,2.24
2022-12-08T22:14:15.614Z,2.26
2022-12-08T22:17:18.720Z,2.04
2022-12-08T22:20:21.029Z,2.07
2022-12-08T22:23:23.647Z,1.87
2022-12-08T22:26:26.008Z,2.04
2022-12-08T22:29:28.541Z,2.05
2022-12-08T22:32:30.977Z,2.17
2022-12-08T22:35:33.256Z,2.05
2022-12-08T22:38:35.408Z,2.03
2022-12-08T22:41:37.787Z,2.08
2022-12-08T22:44:39.996Z,2.18
2022-12-08T22:47:42.306Z,2.27
2022-12-08T22:50:44.502Z,2.17
2022-12-08T22:53:47.342Z,1.97
2022-12-08T22:56:49.491Z,1.95
2022-12-08T22:59:51.749Z,1.84
2022-12-08T23:02:54.265Z,2.00
2022-12-08T23:05:57.382Z,2.04
2022-12-08T23:08:59.686Z,2.17
2022-12-08T23:12:02.165Z,2.14
2022-12-08T23:15:04.802Z,2.22
2022-12-08T23:18:07.593Z,2.28
2022-12-08T23:21:12.615Z,2.33
2022-12-08T23:24:14.757Z,2.27
2022-12-08T23:27:16.913Z,2.40
2022-12-08T23:30:19.188Z,2.33
2022-12-08T23:33:21.579Z,2.25
2022-12-08T23:36:26.312Z,2.23
2022-12-08T23:39:29.381Z,2.16
2022-12-08T23:42:31.579Z,2.17
2022-12-08T23:45:33.795Z,2.37
2022-12-08T23:48:36.271Z,2.24
2022-12-08T23:51:38.642Z,2.32
2022-12-08T23:54:41.118Z,2.33
2022-12-08T23:57:43.354Z,2.38
